createdAt,value
2022-08-16T00:01:24.338Z,40.80
2022-08-16T00:03:54.150Z,41.17
2022-08-16T00:06:23.868Z,35.58
2022-08-16T00:08:52.407Z,40.22
2022-08-16T00:11:21.617Z,42.10
2022-08-16T00:13:54.088Z,38.65
2022-08-16T00:17:06.561Z,37.33
2022-08-16T00:19:14.815Z,41.25
2022-08-16T00:21:43.827Z,40.28
2022-08-16T00:24:13.677Z,39.53
2022-08-16T00:26:59.285Z,42.33
2022-08-16T00:32:00.992Z,34.42
2022-08-16T00:34:43.294Z,34.92
2022-08-16T00:37:20.140Z,35.17
2022-08-16T00:39:58.610Z,31.25
2022-08-16T00:42:32.043Z,35.63
2022-08-16T00:45:25.799Z,37.25
2022-08-16T00:47:54.824Z,40.97
2022-08-16T00:50:36.352Z,35.25
2022-08-16T00:53:11.897Z,35.20
2022-08-16T00:55:48.139Z,36.50
2022-08-16T00:58:34.792Z,37.60
2022-08-16T01:01:08.192Z,33.47
2022-08-16T01:03:41.340Z,34.58
2022-08-16T01:06:39.916Z,34.58
2022-08-16T01:09:20.537Z,34.42
2022-08-16T01:11:51.756Z,30.80
2022-08-16T01:14:31.814Z,36.95
2022-08-16T01:17:01.433Z,33.88
2022-08-16T01:19:45.894Z,34.63
2022-08-16T01:22:47.862Z,32.08
2022-08-16T01:25:24.023Z,35.60
2022-08-16T01:28:05.825Z,35.25
2022-08-16T01:30:40.208Z,32.63
2022-08-16T01:33:20.087Z,26.42
2022-08-16T01:36:11.674Z,36.22
2022-08-16T01:38:48.870Z,31.10
2022-08-16T01:41:24.238Z,30.40
2022-08-16T01:43:55.163Z,32.00
2022-08-16T01:46:39.632Z,38.42
2022-08-16T01:50:40.554Z,37.05
2022-08-16T01:52:28.027Z,32.10
2022-08-16T01:55:25.155Z,34.22
2022-08-16T01:57:56.406Z,27.02
2022-08-16T02:00:29.382Z,26.25
2022-08-16T02:02:59.854Z,27.58
2022-08-16T02:05:30.647Z,23.98
2022-08-16T02:08:00.808Z,29.42
2022-08-16T02:10:29.727Z,31.15
2022-08-16T02:13:04.326Z,27.75
2022-08-16T02:15:35.600Z,31.00
2022-08-16T02:20:45.584Z,21.13
2022-08-16T02:23:17.201Z,28.35
2022-08-16T02:25:51.884Z,30.33
2022-08-16T02:28:23.309Z,23.42
2022-08-16T02:30:53.767Z,25.23
2022-08-16T02:33:24.352Z,24.83
2022-08-16T02:35:58.345Z,25.02
2022-08-16T02:38:31.557Z,29.38
2022-08-16T02:41:02.450Z,23.25
2022-08-16T02:43:38.640Z,24.00
2022-08-16T02:46:08.848Z,26.73
2022-08-16T02:48:39.232Z,29.55
2022-08-16T02:51:18.658Z,27.42
2022-08-16T02:53:52.275Z,24.20
2022-08-16T02:56:22.303Z,30.58
2022-08-16T02:58:53.002Z,30.15
2022-08-16T03:01:33.423Z,28.40
2022-08-16T03:04:39.546Z,29.95
2022-08-16T03:06:56.706Z,28.00
2022-08-16T03:09:38.970Z,33.10
2022-08-16T03:12:07.250Z,27.50
2022-08-16T03:14:35.934Z,32.20
2022-08-16T03:17:07.160Z,31.95
2022-08-16T03:19:47.552Z,29.52
2022-08-16T03:22:29.198Z,31.65
2022-08-16T03:25:08.238Z,34.38
2022-08-16T03:27:41.024Z,31.02
2022-08-16T03:30:17.811Z,30.63
2022-08-16T03:33:07.485Z,34.95
2022-08-16T03:35:42.121Z,35.05
2022-08-16T03:38:34.372Z,34.55
2022-08-16T03:41:17.108Z,34.75
2022-08-16T03:43:56.729Z,29.85
2022-08-16T03:46:48.401Z,34.50
2022-08-16T03:49:20.186Z,34.25
2022-08-16T03:51:51.908Z,36.15
2022-08-16T03:54:28.407Z,32.17
2022-08-16T03:56:58.637Z,34.10
2022-08-16T03:59:31.566Z,35.80
2022-08-16T04:02:12.570Z,34.45
2022-08-16T04:04:54.177Z,38.67
2022-08-16T04:07:24.958Z,32.55
2022-08-16T04:09:53.517Z,37.92
2022-08-16T04:15:12.524Z,28.52
2022-08-16T04:17:54.987Z,37.33
2022-08-16T04:20:29.466Z,29.77
2022-08-16T04:23:02.821Z,33.78
2022-08-16T04:25:33.352Z,28.17
2022-08-16T04:28:53.254Z,35.28
2022-08-16T04:30:50.572Z,32.42
2022-08-16T04:33:19.124Z,34.95
2022-08-16T04:35:58.505Z,27.23
2022-08-16T04:38:27.629Z,32.90
2022-08-16T04:40:58.488Z,37.00
2022-08-16T04:43:27.070Z,31.35
2022-08-16T04:46:00.694Z,30.83
2022-08-16T04:48:33.856Z,29.20
2022-08-16T04:51:12.014Z,36.67
2022-08-16T04:53:45.548Z,32.35
2022-08-16T04:56:17.398Z,31.73
2022-08-16T04:58:47.133Z,33.03
2022-08-16T05:01:20.518Z,30.63
2022-08-16T05:04:00.294Z,33.95
2022-08-16T05:06:45.585Z,26.40
2022-08-16T05:09:40.323Z,27.23
2022-08-16T05:12:21.963Z,25.25
2022-08-16T05:15:02.518Z,19.00
2022-08-16T05:17:35.807Z,26.10
2022-08-16T05:20:38.396Z,15.73
2022-08-16T05:22:59.568Z,27.23
2022-08-16T05:25:41.106Z,18.45
2022-08-16T05:28:18.672Z,24.50
2022-08-16T05:30:55.103Z,24.85
2022-08-16T05:33:26.388Z,24.92
2022-08-16T05:35:57.506Z,19.17
2022-08-16T05:38:39.066Z,13.95
2022-08-16T05:41:13.807Z,23.88
2022-08-16T05:43:46.731Z,16.15
2022-08-16T05:46:29.489Z,21.23
2022-08-16T05:49:05.946Z,15.52
2022-08-16T05:51:41.471Z,18.33
2022-08-16T05:54:14.231Z,19.40
2022-08-16T05:56:50.014Z,22.55
2022-08-16T05:59:19.042Z,18.27
2022-08-16T06:01:50.703Z,19.75
2022-08-16T06:04:35.950Z,19.48
2022-08-16T06:07:26.705Z,17.05
2022-08-16T06:10:07.684Z,13.75
2022-08-16T06:12:38.937Z,18.10
2022-08-16T06:15:15.094Z,17.83
2022-08-16T06:17:45.731Z,13.18
2022-08-16T06:20:23.411Z,14.38
2022-08-16T06:23:02.992Z,19.13
2022-08-16T06:25:53.219Z,15.18
2022-08-16T06:28:34.888Z,18.60
2022-08-16T06:31:07.073Z,19.50
2022-08-16T06:33:42.371Z,21.15
2022-08-16T06:36:15.372Z,14.18
2022-08-16T06:38:55.506Z,13.63
2022-08-16T06:41:44.633Z,14.50
2022-08-16T06:47:05.133Z,15.10
2022-08-16T06:49:33.184Z,17.17
2022-08-16T06:52:03.496Z,15.32
2022-08-16T06:54:38.181Z,11.55
2022-08-16T06:57:11.796Z,13.25
2022-08-16T06:59:52.117Z,14.32
2022-08-16T07:02:32.729Z,15.77
2022-08-16T07:05:15.028Z,14.13
2022-08-16T07:07:51.925Z,10.18
2022-08-16T07:10:25.719Z,13.27
2022-08-16T07:13:03.898Z,13.13
2022-08-16T07:15:50.694Z,11.63
2022-08-16T07:18:24.505Z,18.02
2022-08-16T07:20:54.027Z,13.00
2022-08-16T07:23:36.987Z,18.08
2022-08-16T07:26:25.652Z,17.73
2022-08-16T07:28:57.171Z,18.40
2022-08-16T07:34:10.078Z,13.32
2022-08-16T07:36:39.362Z,14.43
2022-08-16T07:39:08.922Z,12.55
2022-08-16T07:41:40.874Z,13.30
2022-08-16T07:44:16.770Z,14.13
2022-08-16T07:46:48.113Z,14.07
2022-08-16T07:49:24.702Z,11.00
2022-08-16T07:51:54.353Z,10.32
2022-08-16T07:54:32.095Z,10.70
2022-08-16T07:57:11.365Z,11.68
2022-08-16T07:59:42.966Z,13.40
2022-08-16T08:02:20.605Z,10.35
2022-08-16T08:04:53.764Z,11.98
2022-08-16T08:07:21.942Z,11.25
2022-08-16T08:09:52.715Z,9.80
2022-08-16T08:12:31.460Z,9.68
2022-08-16T08:15:05.615Z,9.48
2022-08-16T08:17:42.800Z,8.90
2022-08-16T08:20:23.948Z,11.63
2022-08-16T08:23:00.942Z,10.02
2022-08-16T08:25:53.435Z,12.02
2022-08-16T08:28:23.539Z,9.95
2022-08-16T08:31:01.117Z,11.93
2022-08-16T08:33:31.969Z,10.85
2022-08-16T08:36:07.507Z,10.27
2022-08-16T08:38:43.935Z,11.48
2022-08-16T08:41:18.578Z,11.02
2022-08-16T08:43:50.944Z,8.57
2022-08-16T08:46:22.111Z,11.95
2022-08-16T08:48:59.937Z,10.40
2022-08-16T08:51:35.690Z,8.80
2022-08-16T08:54:06.757Z,11.63
2022-08-16T08:59:19.741Z,13.10
2022-08-16T09:01:57.104Z,11.93
2022-08-16T09:04:30.040Z,11.05
2022-08-16T09:07:01.410Z,10.32
2022-08-16T09:09:34.167Z,9.85
2022-08-16T09:12:08.378Z,9.93
2022-08-16T09:15:02.844Z,14.00
2022-08-16T09:17:48.769Z,14.90
2022-08-16T09:20:20.014Z,14.70
2022-08-16T09:22:52.677Z,13.40
2022-08-16T09:25:33.521Z,13.13
2022-08-16T09:28:09.482Z,14.15
2022-08-16T09:30:45.028Z,15.35
2022-08-16T09:33:19.993Z,15.32
2022-08-16T09:35:53.060Z,13.32
2022-08-16T09:38:32.456Z,13.48
2022-08-16T09:41:03.338Z,13.13
2022-08-16T09:44:00.714Z,11.82
2022-08-16T09:46:44.737Z,11.73
2022-08-16T09:49:09.721Z,7.50
2022-08-16T09:51:41.148Z,7.93
2022-08-16T09:54:16.774Z,11.13
2022-08-16T09:56:53.456Z,10.05
2022-08-16T09:59:25.281Z,11.23
2022-08-16T10:01:54.568Z,13.00
2022-08-16T10:04:30.388Z,12.73
2022-08-16T10:07:15.226Z,9.95
2022-08-16T10:09:54.715Z,9.32
2022-08-16T10:12:55.852Z,9.57
2022-08-16T10:15:30.275Z,8.73
2022-08-16T10:18:02.298Z,10.18
2022-08-16T10:20:48.061Z,9.93
2022-08-16T10:23:17.235Z,13.10
2022-08-16T10:27:18.693Z,12.70
2022-08-16T10:31:06.517Z,12.07
2022-08-16T10:33:34.922Z,13.68
2022-08-16T10:36:09.431Z,12.52
2022-08-16T10:38:41.985Z,13.05
2022-08-16T10:41:16.105Z,8.07
2022-08-16T10:43:44.703Z,10.18
2022-08-16T10:49:01.253Z,11.45
2022-08-16T10:51:34.631Z,8.85
2022-08-16T10:54:29.555Z,10.75
2022-08-16T10:56:59.740Z,11.20
2022-08-16T10:59:32.689Z,11.07
2022-08-16T11:02:59.478Z,12.50
2022-08-16T11:05:12.441Z,12.95
2022-08-16T11:07:52.621Z,11.73
2022-08-16T11:19:12.354Z,13.82
2022-08-16T11:24:40.015Z,14.18
2022-08-16T11:27:23.204Z,13.45
2022-08-16T11:29:55.846Z,13.70
2022-08-16T11:32:31.940Z,11.50
2022-08-16T11:35:14.653Z,14.18
2022-08-16T11:40:44.191Z,14.07
2022-08-16T11:43:16.571Z,15.15
2022-08-16T11:45:53.818Z,16.08
2022-08-16T11:48:27.026Z,12.05
2022-08-16T11:50:55.397Z,15.35
2022-08-16T11:53:24.689Z,13.85
2022-08-16T11:55:54.657Z,10.82
2022-08-16T11:58:28.193Z,9.70
2022-08-16T12:00:57.760Z,14.65
2022-08-16T12:03:34.868Z,11.27
2022-08-16T12:06:25.515Z,9.10
2022-08-16T12:09:01.960Z,11.90
2022-08-16T12:11:32.002Z,9.07
2022-08-16T12:14:04.532Z,12.30
2022-08-16T12:16:34.783Z,9.93
2022-08-16T12:19:04.915Z,10.57
2022-08-16T12:21:36.034Z,13.32
2022-08-16T12:24:22.234Z,7.72
2022-08-16T12:26:53.306Z,8.18
2022-08-16T12:29:22.749Z,10.55
2022-08-16T12:31:59.025Z,10.05
2022-08-16T12:34:50.914Z,10.25
2022-08-16T12:37:24.177Z,11.13
2022-08-16T12:39:56.155Z,9.07
2022-08-16T12:42:34.742Z,6.97
2022-08-16T12:45:06.480Z,10.63
2022-08-16T12:48:04.863Z,8.05
2022-08-16T12:50:40.840Z,10.27
2022-08-16T12:53:09.555Z,7.30
2022-08-16T12:55:41.898Z,10.55
2022-08-16T12:58:13.524Z,10.73
2022-08-16T13:00:43.706Z,11.50
2022-08-16T13:03:12.136Z,8.65
2022-08-16T13:05:47.930Z,8.55
2022-08-16T13:08:27.575Z,8.32
2022-08-16T13:11:02.385Z,11.35
2022-08-16T13:13:31.512Z,13.35
2022-08-16T13:16:05.717Z,10.38
2022-08-16T13:18:43.208Z,10.43
2022-08-16T13:21:19.951Z,16.95
2022-08-16T13:23:55.268Z,15.35
2022-08-16T13:26:26.431Z,10.13
2022-08-16T13:28:55.227Z,12.80
2022-08-16T13:32:40.477Z,10.38
2022-08-16T13:35:11.677Z,11.02
2022-08-16T13:37:41.256Z,11.95
2022-08-16T13:40:20.181Z,9.88
2022-08-16T13:42:52.340Z,8.90
2022-08-16T13:45:20.500Z,10.02
2022-08-16T13:47:48.694Z,8.55
2022-08-16T13:50:31.177Z,12.95
2022-08-16T13:53:08.891Z,10.52
2022-08-16T13:58:37.070Z,7.57
2022-08-16T14:00:53.039Z,9.43
2022-08-16T14:03:21.996Z,9.00
2022-08-16T14:05:53.095Z,9.15
2022-08-16T14:08:25.203Z,10.68
2022-08-16T14:10:55.606Z,9.45
2022-08-16T14:13:23.963Z,11.73
2022-08-16T14:15:52.755Z,9.43
2022-08-16T14:18:21.063Z,11.55
2022-08-16T14:20:51.255Z,9.73
2022-08-16T14:23:21.848Z,8.93
2022-08-16T14:25:53.987Z,9.05
2022-08-16T14:28:23.592Z,11.25
2022-08-16T14:30:54.339Z,9.63
2022-08-16T14:33:22.667Z,9.15
2022-08-16T14:35:50.989Z,9.45
2022-08-16T14:38:23.699Z,9.18
2022-08-16T14:40:55.444Z,10.40
2022-08-16T14:43:29.832Z,8.85
2022-08-16T14:45:58.604Z,9.77
2022-08-16T14:50:55.664Z,10.40
2022-08-16T14:53:26.408Z,7.70
2022-08-16T14:55:54.589Z,10.68
2022-08-16T14:58:34.804Z,7.38
2022-08-16T15:01:05.974Z,8.35
2022-08-16T15:03:37.499Z,7.95
2022-08-16T15:06:06.144Z,10.13
2022-08-16T15:08:36.866Z,7.55
2022-08-16T15:11:07.808Z,6.40
2022-08-16T15:13:36.149Z,10.02
2022-08-16T15:16:05.073Z,6.85
2022-08-16T15:18:33.603Z,9.40
2022-08-16T15:21:02.642Z,8.27
2022-08-16T15:23:31.719Z,7.82
2022-08-16T15:26:03.967Z,9.30
2022-08-16T15:28:37.268Z,11.48
2022-08-16T15:31:09.709Z,8.90
2022-08-16T15:33:42.634Z,9.95
2022-08-16T15:36:18.188Z,8.73
2022-08-16T15:39:03.043Z,7.80
2022-08-16T15:41:38.771Z,11.63
2022-08-16T15:44:14.217Z,10.05
2022-08-16T15:46:55.628Z,8.38
2022-08-16T15:49:37.866Z,7.70
2022-08-16T15:52:24.937Z,9.52
2022-08-16T15:55:00.531Z,9.18
2022-08-16T15:57:41.757Z,9.07
2022-08-16T16:00:14.639Z,8.05
2022-08-16T16:02:44.220Z,11.38
2022-08-16T16:05:13.624Z,9.88
2022-08-16T16:07:56.757Z,9.07
2022-08-16T16:10:31.417Z,8.10
2022-08-16T16:13:04.726Z,10.07
2022-08-16T16:15:45.502Z,10.30
2022-08-16T16:18:15.078Z,8.23
2022-08-16T16:20:56.186Z,10.15
2022-08-16T16:23:28.478Z,10.23
2022-08-16T16:25:58.394Z,7.75
2022-08-16T16:29:08.085Z,9.43
2022-08-16T16:31:19.083Z,8.07
2022-08-16T16:33:51.323Z,7.25
2022-08-16T16:36:25.473Z,8.23
2022-08-16T16:38:56.457Z,7.63
2022-08-16T16:41:27.793Z,8.10
2022-08-16T16:43:56.352Z,6.82
2022-08-16T16:46:42.199Z,6.63
2022-08-16T16:49:13.911Z,6.88
2022-08-16T16:51:44.905Z,7.47
2022-08-16T16:54:27.753Z,7.35
2022-08-16T16:56:58.126Z,7.55
2022-08-16T16:59:28.405Z,8.70
2022-08-16T17:02:01.429Z,7.45
2022-08-16T17:04:47.427Z,6.80
2022-08-16T17:07:15.575Z,7.03
2022-08-16T17:09:45.750Z,7.60
2022-08-16T17:12:24.485Z,7.22
2022-08-16T17:15:01.615Z,6.78
2022-08-16T17:17:30.122Z,5.60
2022-08-16T17:20:18.777Z,6.53
2022-08-16T17:22:46.567Z,5.40
2022-08-16T17:25:24.166Z,5.05
2022-08-16T17:27:52.458Z,5.63
2022-08-16T17:30:29.598Z,6.68
2022-08-16T17:33:13.406Z,4.00
2022-08-16T17:35:45.621Z,5.68
2022-08-16T17:38:38.705Z,5.45
2022-08-16T17:41:13.460Z,5.13
2022-08-16T17:43:44.191Z,5.88
2022-08-16T17:46:50.801Z,5.38
2022-08-16T17:49:02.511Z,4.38
2022-08-16T17:51:30.322Z,4.05
2022-08-16T17:56:26.109Z,5.47
2022-08-16T18:01:26.705Z,4.38
2022-08-16T18:04:09.257Z,4.47
2022-08-16T18:06:39.675Z,4.43
2022-08-16T18:09:08.702Z,4.53
2022-08-16T18:11:40.883Z,4.32
2022-08-16T18:14:10.898Z,3.75
2022-08-16T18:16:40.972Z,4.68
2022-08-16T18:19:09.924Z,5.82
2022-08-16T18:21:56.112Z,4.90
2022-08-16T18:24:24.947Z,4.85
2022-08-16T18:26:53.247Z,6.50
2022-08-16T18:29:21.466Z,5.38
2022-08-16T18:31:50.973Z,6.38
2022-08-16T18:34:20.809Z,5.60
2022-08-16T18:36:48.741Z,6.07
2022-08-16T18:41:47.321Z,5.00
2022-08-16T18:44:26.080Z,5.57
2022-08-16T18:46:55.736Z,5.50
2022-08-16T18:56:55.117Z,6.65
2022-08-16T18:59:26.971Z,5.82
2022-08-16T19:01:55.508Z,8.27
2022-08-16T19:07:30.874Z,8.10
2022-08-16T19:10:04.561Z,7.15
2022-08-16T19:12:38.897Z,7.78
2022-08-16T19:15:21.386Z,7.85
2022-08-16T19:17:49.319Z,8.43
2022-08-16T19:25:48.791Z,8.90
2022-08-16T19:28:49.653Z,7.88
2022-08-16T19:31:14.984Z,8.35
2022-08-16T19:33:53.821Z,7.00
2022-08-16T19:36:35.243Z,6.50
2022-08-16T19:39:09.417Z,8.15
2022-08-16T19:41:45.416Z,8.43
2022-08-16T19:44:13.441Z,8.27
2022-08-16T19:46:46.728Z,8.05
2022-08-16T19:49:16.200Z,8.38
2022-08-16T19:51:46.182Z,10.10
2022-08-16T19:54:14.365Z,9.90
2022-08-16T19:56:42.190Z,11.35
2022-08-16T20:01:51.203Z,12.20
2022-08-16T20:04:19.734Z,9.23
2022-08-16T20:06:47.937Z,9.25
2022-08-16T20:09:16.076Z,11.60
2022-08-16T20:11:45.516Z,12.32
2022-08-16T20:14:24.181Z,13.40
2022-08-16T20:16:56.281Z,14.05
2022-08-16T20:19:27.285Z,13.50
2022-08-16T20:21:56.727Z,13.30
2022-08-16T20:24:35.058Z,12.88
2022-08-16T20:27:06.141Z,14.05
2022-08-16T20:29:34.546Z,14.45
2022-08-16T20:32:03.572Z,14.63
2022-08-16T20:34:31.455Z,13.68
2022-08-16T20:39:27.169Z,13.05
2022-08-16T20:41:54.920Z,11.55
2022-08-16T20:44:25.275Z,13.38
2022-08-16T20:46:53.264Z,13.23
2022-08-16T20:49:21.017Z,11.55
2022-08-16T20:51:52.609Z,11.57
2022-08-16T20:54:22.802Z,9.35
2022-08-16T20:59:17.982Z,9.77
2022-08-16T21:01:50.277Z,9.65
2022-08-16T21:04:24.572Z,10.25
2022-08-16T21:06:54.670Z,9.38
2022-08-16T21:09:24.836Z,7.70
2022-08-16T21:11:54.935Z,9.35
2022-08-16T21:14:23.682Z,9.50
2022-08-16T21:16:51.673Z,8.80
2022-08-16T21:21:48.761Z,9.10
2022-08-16T21:24:17.227Z,6.90
2022-08-16T21:26:55.260Z,7.88
2022-08-16T21:29:26.207Z,8.40
2022-08-16T21:32:12.282Z,5.80
2022-08-16T21:34:40.976Z,6.40
2022-08-16T21:37:08.956Z,7.18
2022-08-16T21:39:37.278Z,6.85
2022-08-16T21:42:14.174Z,6.68
2022-08-16T21:44:42.095Z,5.00
2022-08-16T21:49:38.413Z,4.22
2022-08-16T21:52:07.592Z,4.63
2022-08-16T21:54:36.540Z,4.72
2022-08-16T21:57:10.181Z,4.72
2022-08-16T21:59:38.604Z,4.88
2022-08-16T22:02:06.886Z,5.18
2022-08-16T22:04:37.014Z,5.35
2022-08-16T22:07:07.318Z,4.97
2022-08-16T22:09:35.419Z,5.30
2022-08-16T22:12:03.284Z,4.65
2022-08-16T22:14:31.413Z,4.45
2022-08-16T22:16:59.563Z,4.47
2022-08-16T22:19:27.249Z,5.10
2022-08-16T22:21:55.724Z,5.82
2022-08-16T22:24:23.487Z,5.47
2022-08-16T22:26:51.289Z,5.25
2022-08-16T22:29:19.330Z,5.32
2022-08-16T22:34:15.080Z,3.30
2022-08-16T22:36:42.817Z,5.22
2022-08-16T22:39:13.298Z,3.78
2022-08-16T22:41:43.343Z,4.40
2022-08-16T22:44:12.825Z,4.60
2022-08-16T22:46:41.268Z,3.65
2022-08-16T22:49:09.893Z,3.95
2022-08-16T22:51:39.248Z,3.92
2022-08-16T22:54:42.553Z,2.42
2022-08-16T22:56:56.584Z,2.22
2022-08-16T22:59:25.289Z,2.30
2022-08-16T23:01:53.606Z,1.20
2022-08-16T23:04:21.472Z,1.10
2022-08-16T23:06:49.372Z,1.33
2022-08-16T23:09:17.076Z,1.15
2022-08-16T23:11:44.953Z,1.17
2022-08-16T23:15:45.155Z,1.40
2022-08-16T23:18:14.706Z,1.75
2022-08-16T23:20:43.125Z,1.90
2022-08-16T23:23:20.291Z,1.40
2022-08-16T23:25:55.102Z,1.58
2022-08-16T23:28:26.366Z,1.20
2022-08-16T23:30:55.429Z,1.85
2022-08-16T23:33:24.920Z,1.20
2022-08-16T23:35:56.246Z,1.95
2022-08-16T23:38:37.590Z,1.75
2022-08-16T23:41:11.786Z,2.00
2022-08-16T23:43:43.234Z,2.30
2022-08-16T23:46:16.986Z,2.40
2022-08-16T23:49:44.942Z,2.30
2022-08-16T23:51:33.640Z,1.90
2022-08-16T23:54:01.584Z,2.17
2022-08-16T23:56:29.985Z,1.67
2022-08-16T23:59:05.625Z,1.40
